Time;durP1;ratioP1;P1;durP2;ratioP2;P2;SDS_P1;SDS_P2;PMS_P1;PMS_P2;Temp;Humidity;BMP_temperature;BMP_pressure;BME280_temperature;BME280_humidity;BME280_pressure;Samples;Min_cycle;Max_cycle;Signal;HPM_P1;HPM_P2
2023/02/04 00:01:38;;;;;;;11.02;6.72;;;;;;;2.15;64.47;99288.00;5073833;28;20116;-51
2023/02/04 00:04:04;;;;;;;9.65;6.72;;;;;;;2.18;64.50;99289.63;5074485;28;20036;-53
2023/02/04 00:06:29;;;;;;;10.60;6.85;;;;;;;2.18;64.73;99292.25;5074379;28;20040;-53
2023/02/04 00:08:54;;;;;;;12.93;6.85;;;;;;;2.18;64.61;99293.09;5074289;28;20463;-58
2023/02/04 00:11:20;;;;;;;11.32;7.90;;;;;;;2.14;64.84;99279.19;5073073;28;20062;-54
2023/02/04 00:13:45;;;;;;;10.77;6.82;;;;;;;2.15;64.28;99283.53;5074729;28;20024;-53
2023/02/04 00:16:11;;;;;;;10.32;6.35;;;;;;;2.14;64.32;99287.13;5074551;28;20447;-55
2023/02/04 00:18:36;;;;;;;9.82;6.95;;;;;;;2.09;64.44;99275.97;5074029;28;20340;-52
2023/02/04 00:21:02;;;;;;;8.02;5.75;;;;;;;1.98;64.69;99257.22;5073904;28;20454;-54
2023/02/04 00:23:27;;;;;;;8.23;5.85;;;;;;;2.16;63.74;99292.34;5073968;28;20043;-53
2023/02/04 00:25:53;;;;;;;8.88;6.47;;;;;;;2.15;63.99;99290.63;5073668;28;20099;-53
2023/02/04 00:28:18;;;;;;;8.50;6.13;;;;;;;2.13;64.26;99293.34;5074151;28;20461;-54
2023/02/04 00:30:44;;;;;;;7.55;5.75;;;;;;;2.14;64.07;99292.41;5074232;28;20044;-52
2023/02/04 00:33:09;;;;;;;7.75;6.25;;;;;;;2.18;64.64;99305.47;5073621;28;20031;-54
2023/02/04 00:35:36;;;;;;;9.52;6.45;;;;;;;2.13;64.68;99292.50;5073882;28;20066;-53
2023/02/04 00:38:02;;;;;;;9.25;5.93;;;;;;;2.20;64.66;99306.22;5073583;28;20370;-56
2023/02/04 00:40:28;;;;;;;10.73;7.80;;;;;;;2.20;64.83;99308.88;5072735;28;20041;-53
2023/02/04 00:42:54;;;;;;;16.20;10.27;;;;;;;2.17;64.37;99307.25;5073293;28;20051;-56
2023/02/04 00:45:19;;;;;;;18.40;12.38;;;;;;;2.12;64.45;99304.00;5073059;28;20406;-53
2023/02/04 00:47:45;;;;;;;16.77;11.65;;;;;;;2.07;64.54;99304.25;5073641;28;20028;-54
2023/02/04 00:50:10;;;;;;;15.48;10.43;;;;;;;1.98;64.35;99297.66;5073239;28;20041;-57
2023/02/04 00:52:36;;;;;;;15.32;11.23;;;;;;;1.98;64.60;99315.31;5073472;28;20040;-55
2023/02/04 00:55:01;;;;;;;16.92;11.80;;;;;;;1.90;64.76;99312.19;5073439;28;20427;-54
2023/02/04 00:57:27;;;;;;;15.77;12.02;;;;;;;1.85;64.90;99315.94;5072857;28;20056;-54
2023/02/04 00:59:52;;;;;;;13.65;10.65;;;;;;;1.73;64.64;99306.06;5073429;28;20036;-56
2023/02/04 01:02:17;;;;;;;18.38;11.70;;;;;;;1.71;64.78;99315.84;5073310;28;20382;-52
2023/02/04 01:04:43;;;;;;;16.75;10.75;;;;;;;1.66;65.60;99323.97;5072718;28;20036;-57
2023/02/04 01:07:08;;;;;;;22.35;13.05;;;;;;;1.62;65.76;99313.66;5073205;28;20064;-54
2023/02/04 01:09:34;;;;;;;20.92;14.90;;;;;;;1.67;65.29;99319.53;5073376;28;20052;-53
2023/02/04 01:11:59;;;;;;;23.05;16.02;;;;;;;1.67;65.11;99315.13;5073075;28;20055;-55
2023/02/04 01:14:24;;;;;;;21.05;14.50;;;;;;;1.72;65.58;99317.53;5072941;28;20028;-55
2023/02/04 01:16:50;;;;;;;22.55;15.70;;;;;;;1.77;64.92;99325.19;5073277;28;20127;-58
2023/02/04 01:19:15;;;;;;;22.33;15.13;;;;;;;1.79;64.97;99321.56;5072886;28;20056;-57
2023/02/04 01:21:41;;;;;;;21.83;15.38;;;;;;;1.84;65.02;99330.06;5072426;28;20040;-50
2023/02/04 01:24:06;;;;;;;25.33;16.13;;;;;;;1.85;65.16;99317.75;5072990;28;20454;-53
2023/02/04 01:26:32;;;;;;;22.00;15.32;;;;;;;1.92;64.48;99319.13;5072718;28;20111;-50
2023/02/04 01:28:57;;;;;;;20.35;15.25;;;;;;;1.94;64.79;99334.91;5072552;28;20028;-55
2023/02/04 01:31:23;;;;;;;18.65;13.77;;;;;;;1.94;64.68;99326.97;5072965;28;20358;-53
2023/02/04 01:33:48;;;;;;;17.63;12.80;;;;;;;1.97;64.46;99329.44;5073343;28;20112;-51
2023/02/04 01:36:20;;;;;;;14.88;11.05;;;;;;;1.99;64.39;99324.94;5072119;28;20029;-52
2023/02/04 01:38:46;;;;;;;17.90;10.98;;;;;;;2.04;64.15;99327.31;5072796;28;20040;-55
2023/02/04 01:41:12;;;;;;;15.02;10.23;;;;;;;2.01;64.35;99337.09;5073024;28;20382;-55
2023/02/04 01:43:37;;;;;;;15.82;10.75;;;;;;;2.01;64.15;99337.09;5072373;28;20040;-52
2023/02/04 01:46:03;;;;;;;13.45;10.13;;;;;;;2.05;64.11;99339.56;5072246;28;20044;-54
2023/02/04 01:48:29;;;;;;;15.23;10.75;;;;;;;2.05;64.12;99350.13;5072420;28;20035;-54
2023/02/04 01:51:03;;;;;;;15.38;11.02;;;;;;;2.10;63.93;99358.69;5072916;28;20024;-51
2023/02/04 01:53:30;;;;;;;16.77;10.75;;;;;;;2.07;64.52;99354.41;5072717;28;20028;-52
2023/02/04 01:55:56;;;;;;;14.15;10.52;;;;;;;2.07;63.35;99351.78;5072310;28;20447;-54
2023/02/04 01:58:21;;;;;;;13.32;10.10;;;;;;;2.11;63.82;99358.59;5071350;28;20047;-57
2023/02/04 02:00:46;;;;;;;12.40;9.35;;;;;;;2.10;63.99;99359.53;5072533;28;20082;-57
2023/02/04 02:03:12;;;;;;;12.52;9.50;;;;;;;2.12;63.71;99359.47;5072718;28;20046;-55
2023/02/04 02:05:42;;;;;;;12.57;8.48;;;;;;;2.10;63.79;99362.19;5071928;28;20033;-56
2023/02/04 02:08:09;;;;;;;11.77;8.15;;;;;;;2.09;64.30;99367.56;5072173;28;20025;-52
2023/02/04 02:10:36;;;;;;;9.27;6.65;;;;;;;2.09;64.04;99372.84;5072664;28;20025;-56
2023/02/04 02:13:04;;;;;;;11.05;6.38;;;;;;;2.08;63.62;99371.97;5072341;28;20064;-52
2023/02/04 02:15:29;;;;;;;8.35;6.38;;;;;;;2.06;64.39;99373.84;5072104;28;20122;-55
2023/02/04 02:17:55;;;;;;;7.43;5.55;;;;;;;2.04;64.52;99370.44;5071973;28;20050;-54
2023/02/04 02:20:23;;;;;;;8.45;6.07;;;;;;;2.09;64.18;99381.59;5072806;28;20025;-52
2023/02/04 02:23:43;;;;;;;8.43;6.07;;;;;;;2.18;64.60;99387.34;5072983;28;20098;-53
2023/02/04 02:26:09;;;;;;;9.88;6.50;;;;;;;2.10;64.07;99387.75;5071496;28;20051;-59
2023/02/04 02:28:35;;;;;;;9.00;6.57;;;;;;;2.05;64.15;99389.75;5071914;28;20036;-55
2023/02/04 02:31:00;;;;;;;10.48;6.65;;;;;;;2.01;64.32;99383.78;5072199;28;20032;-58
2023/02/04 02:33:25;;;;;;;9.65;6.75;;;;;;;1.98;64.52;99387.44;5071956;28;20032;-53
2023/02/04 02:35:51;;;;;;;8.77;6.88;;;;;;;1.97;65.15;99387.53;5072091;28;20110;-56
2023/02/04 02:38:18;;;;;;;9.30;6.63;;;;;;;1.99;64.90;99393.59;5070801;28;20032;-56
2023/02/04 02:40:45;;;;;;;10.07;6.72;;;;;;;1.97;65.10;99384.91;5071616;28;20091;-55
2023/02/04 02:43:17;;;;;;;8.95;6.80;;;;;;;1.98;65.40;99389.25;5071880;28;20046;-55
2023/02/04 02:45:43;;;;;;;8.15;6.53;;;;;;;1.93;65.23;99385.97;5071801;28;20028;-56
2023/02/04 02:48:09;;;;;;;10.10;7.22;;;;;;;1.89;65.31;99389.69;5071883;28;20123;-57
2023/02/04 02:50:35;;;;;;;10.20;6.90;;;;;;;1.81;65.85;99396.25;5071909;28;20056;-52
2023/02/04 02:53:03;;;;;;;9.77;6.82;;;;;;;1.77;65.72;99399.97;5071817;28;20128;-53
2023/02/04 02:55:29;;;;;;;10.38;7.60;;;;;;;1.72;65.81;99383.53;5071947;28;20044;-55
2023/02/04 02:57:56;;;;;;;10.88;7.00;;;;;;;1.75;66.33;99387.78;5071862;28;20021;-55
2023/02/04 03:00:26;;;;;;;10.18;7.22;;;;;;;1.75;66.33;99396.56;5071564;28;20083;-55
2023/02/04 03:02:55;;;;;;;9.88;6.63;;;;;;;1.78;66.19;99406.97;5072271;28;20032;-53
2023/02/04 03:05:20;;;;;;;8.68;6.75;;;;;;;1.77;66.39;99409.66;5071778;28;20082;-52
2023/02/04 03:07:46;;;;;;;11.27;7.55;;;;;;;1.76;65.97;99406.19;5071821;28;20709;-56
2023/02/04 03:10:11;;;;;;;9.52;6.80;;;;;;;1.73;66.30;99408.97;5075549;28;20071;-52
2023/02/04 03:12:38;;;;;;;12.80;6.88;;;;;;;1.60;66.35;99392.91;5075294;28;20364;-55
2023/02/04 03:15:04;;;;;;;10.38;7.15;;;;;;;1.73;66.24;99416.91;5074954;28;20101;-52
2023/02/04 03:17:30;;;;;;;10.48;7.10;;;;;;;1.51;66.12;99377.53;5075170;28;20127;-51
2023/02/04 03:19:57;;;;;;;11.05;7.70;;;;;;;1.65;66.51;99411.13;5075437;28;20024;-53
2023/02/04 03:22:22;;;;;;;9.13;7.18;;;;;;;1.39;66.28;99402.75;5075386;28;20029;-58
2023/02/04 03:24:48;;;;;;;9.63;7.25;;;;;;;1.53;66.95;99431.94;5074984;28;20079;-52
2023/02/04 03:27:14;;;;;;;10.63;7.85;;;;;;;1.54;66.60;99424.88;5075170;28;20028;-57
2023/02/04 03:29:44;;;;;;;10.73;7.95;;;;;;;1.57;66.43;99425.56;5075206;28;20362;-55
2023/02/04 03:32:09;;;;;;;9.43;7.10;;;;;;;1.53;66.64;99431.94;5075041;28;20028;-54
2023/02/04 03:34:35;;;;;;;10.52;7.40;;;;;;;1.54;65.93;99425.72;5074731;28;20024;-56
2023/02/04 03:37:00;;;;;;;12.02;7.55;;;;;;;1.55;66.18;99432.72;5074976;28;20020;-52
2023/02/04 03:39:26;;;;;;;9.07;7.00;;;;;;;1.53;66.48;99429.31;5074864;28;20024;-55
2023/02/04 03:41:51;;;;;;;13.57;8.23;;;;;;;1.51;66.46;99436.44;5078410;28;20578;-53
2023/02/04 03:44:17;;;;;;;10.27;7.15;;;;;;;1.53;66.81;99436.34;5074776;28;20124;-55
2023/02/04 03:46:43;;;;;;;10.45;7.93;;;;;;;1.54;66.83;99440.69;5074994;28;20413;-54
2023/02/04 03:49:08;;;;;;;11.10;7.45;;;;;;;1.54;66.54;99438.06;5074787;28;20054;-53
2023/02/04 03:51:33;;;;;;;10.80;7.28;;;;;;;1.47;66.13;99416.44;5074674;28;20033;-57
2023/02/04 03:53:59;;;;;;;9.45;7.28;;;;;;;1.66;66.07;99442.75;5074253;28;20096;-54
2023/02/04 03:56:24;;;;;;;11.27;7.55;;;;;;;1.71;65.98;99450.44;5074837;28;20037;-55
2023/02/04 03:58:50;;;;;;;9.82;7.18;;;;;;;1.74;65.87;99446.78;5074257;28;20028;-53
2023/02/04 04:01:15;;;;;;;9.77;7.30;;;;;;;1.74;65.80;99439.72;5074172;28;20029;-55
2023/02/04 04:03:41;;;;;;;12.05;7.43;;;;;;;1.66;65.77;99424.28;5074239;28;20045;-55
2023/02/04 04:06:08;;;;;;;8.77;7.00;;;;;;;1.82;65.08;99449.91;5074702;28;20060;-55
2023/02/04 04:08:34;;;;;;;10.20;7.55;;;;;;;1.80;65.24;99447.31;5074924;28;20107;-55
2023/02/04 04:11:00;;;;;;;9.77;7.10;;;;;;;1.85;64.58;99455.84;5074046;28;20510;-57
2023/02/04 04:13:25;;;;;;;8.25;6.07;;;;;;;1.89;64.66;99455.69;5073983;28;20106;-53
2023/02/04 04:15:51;;;;;;;8.60;6.13;;;;;;;1.90;64.52;99457.41;5074475;28;20094;-55
2023/02/04 04:18:16;;;;;;;9.27;6.55;;;;;;;1.96;64.39;99460.59;5074391;28;20031;-56
2023/02/04 04:20:41;;;;;;;9.60;7.32;;;;;;;1.98;64.38;99453.44;5072865;28;20063;-54
2023/02/04 04:23:07;;;;;;;10.48;7.28;;;;;;;2.03;64.44;99470.84;5073930;28;20036;-53
2023/02/04 04:25:32;;;;;;;9.75;7.32;;;;;;;2.03;64.61;99463.78;5074166;28;20067;-56
2023/02/04 04:27:58;;;;;;;12.50;7.57;;;;;;;2.06;64.53;99466.25;5073921;28;20044;-50
2023/02/04 04:30:23;;;;;;;10.82;7.95;;;;;;;2.09;64.78;99466.09;5073675;28;20032;-56
2023/02/04 04:32:49;;;;;;;10.23;7.50;;;;;;;2.14;64.89;99485.19;5073652;28;20106;-57
2023/02/04 04:35:14;;;;;;;12.30;7.93;;;;;;;1.93;64.76;99444.03;5073693;28;20108;-56
2023/02/04 04:37:39;;;;;;;9.32;7.32;;;;;;;2.15;64.70;99480.78;5073506;28;20037;-55
2023/02/04 04:40:05;;;;;;;9.75;7.20;;;;;;;2.18;65.04;99487.72;5073078;28;20033;-54
2023/02/04 04:42:31;;;;;;;11.18;7.35;;;;;;;1.98;65.06;99452.59;5073636;28;20477;-53
2023/02/04 04:44:56;;;;;;;11.27;8.23;;;;;;;2.18;65.46;99477.16;5074013;28;20043;-51
2023/02/04 04:47:22;;;;;;;11.95;8.00;;;;;;;2.20;65.14;99486.69;5073285;28;20040;-51
2023/02/04 04:49:47;;;;;;;12.68;8.05;;;;;;;2.23;64.86;99490.97;5073541;28;20029;-51
2023/02/04 04:52:13;;;;;;;10.40;8.00;;;;;;;2.26;64.51;99490.81;5073542;28;20115;-53
2023/02/04 04:54:38;;;;;;;12.70;8.60;;;;;;;2.29;64.00;99488.88;5072999;28;20385;-52
2023/02/04 04:57:03;;;;;;;13.05;8.27;;;;;;;2.29;64.15;99495.94;5073319;28;20431;-53
2023/02/04 04:59:29;;;;;;;10.77;7.80;;;;;;;2.30;64.38;99489.69;5073930;28;20107;-53
2023/02/04 05:01:54;;;;;;;11.65;8.48;;;;;;;2.30;64.56;99500.28;5072944;28;20340;-54
2023/02/04 05:04:20;;;;;;;13.55;8.10;;;;;;;2.31;64.29;99509.91;5073298;28;20028;-56
2023/02/04 05:06:45;;;;;;;13.25;8.38;;;;;;;2.33;64.24;99502.75;5073344;28;20032;-56
2023/02/04 05:09:11;;;;;;;12.38;8.60;;;;;;;2.32;64.52;99503.69;5072630;28;20111;-53
2023/02/04 05:11:36;;;;;;;14.45;8.50;;;;;;;2.34;64.79;99509.75;5072188;28;20029;-53
2023/02/04 05:14:01;;;;;;;12.63;8.48;;;;;;;2.31;64.44;99509.91;5073187;28;20366;-55
2023/02/04 05:16:27;;;;;;;12.25;7.90;;;;;;;2.26;64.48;99504.84;5072163;28;20036;-54
2023/02/04 05:18:52;;;;;;;11.00;8.05;;;;;;;2.26;64.27;99514.56;5072917;28;20143;-53
2023/02/04 05:21:18;;;;;;;12.43;8.68;;;;;;;2.18;64.57;99504.41;5072945;28;20431;-54
2023/02/04 05:23:43;;;;;;;12.80;8.98;;;;;;;2.24;65.14;99524.38;5073100;28;20029;-56
2023/02/04 05:26:09;;;;;;;12.75;8.55;;;;;;;2.24;64.83;99519.94;5072792;28;20051;-54
2023/02/04 05:28:34;;;;;;;13.50;8.52;;;;;;;2.26;65.25;99530.44;5072282;28;20343;-58
2023/02/04 05:31:00;;;;;;;12.63;7.75;;;;;;;2.24;65.24;99534.94;5073104;28;20108;-50
2023/02/04 05:33:25;;;;;;;12.20;8.02;;;;;;;2.25;64.61;99540.13;5071933;28;20021;-51
2023/02/04 05:35:51;;;;;;;14.77;8.27;;;;;;;2.22;64.97;99537.66;5072780;28;20123;-57
2023/02/04 05:38:16;;;;;;;11.23;8.25;;;;;;;2.21;65.54;99538.56;5072396;28;20049;-55
2023/02/04 05:40:42;;;;;;;12.63;8.05;;;;;;;2.22;65.56;99544.72;5072806;28;20098;-54
2023/02/04 05:43:07;;;;;;;13.13;8.63;;;;;;;2.22;64.87;99544.72;5072545;28;20039;-54
2023/02/04 05:45:33;;;;;;;13.63;8.38;;;;;;;2.21;65.14;99546.50;5072893;28;20415;-55
2023/02/04 05:47:58;;;;;;;11.07;8.10;;;;;;;2.15;64.84;99530.97;5072375;28;20044;-51
2023/02/04 05:50:24;;;;;;;13.73;8.98;;;;;;;2.24;65.27;99551.63;5072790;28;20024;-51
2023/02/04 05:52:49;;;;;;;13.23;8.10;;;;;;;2.25;64.94;99553.34;5072861;28;20375;-53
2023/02/04 05:55:15;;;;;;;12.07;8.82;;;;;;;2.26;65.19;99554.19;5071240;28;20037;-52
2023/02/04 05:57:40;;;;;;;15.40;10.23;;;;;;;2.14;64.65;99542.47;5072168;28;20107;-55
2023/02/04 06:00:07;;;;;;;20.23;12.65;;;;;;;2.13;64.44;99557.44;5072708;28;20316;-53
2023/02/04 06:02:32;;;;;;;27.55;15.48;;;;;;;2.12;64.27;99578.66;5072603;28;20029;-53
2023/02/04 06:04:58;;;;;;;22.75;14.48;;;;;;;2.08;64.49;99577.97;5072478;28;20512;-53
2023/02/04 06:07:24;;;;;;;19.13;13.50;;;;;;;2.05;64.16;99575.47;5072106;28;20040;-52
2023/02/04 06:09:49;;;;;;;18.75;12.77;;;;;;;2.04;64.95;99573.75;5072325;28;20423;-51
2023/02/04 06:12:14;;;;;;;19.60;11.43;;;;;;;2.05;64.05;99588.69;5072110;28;20035;-55
2023/02/04 06:14:40;;;;;;;15.23;9.85;;;;;;;2.03;64.03;99585.25;5072450;28;20028;-57
2023/02/04 06:17:05;;;;;;;15.18;9.65;;;;;;;2.05;64.07;99588.69;5071732;28;20366;-56
2023/02/04 06:19:31;;;;;;;16.13;9.00;;;;;;;2.00;64.27;99585.41;5072235;28;20076;-54
2023/02/04 06:21:56;;;;;;;16.38;9.07;;;;;;;2.04;63.80;99589.59;5072472;28;20122;-54
2023/02/04 06:24:22;;;;;;;16.58;9.57;;;;;;;2.08;63.83;99604.38;5072055;28;20032;-51
2023/02/04 06:26:47;;;;;;;13.85;9.10;;;;;;;2.11;64.15;99606.00;5072167;28;20039;-55
2023/02/04 06:29:12;;;;;;;13.85;8.65;;;;;;;2.18;63.73;99611.84;5071840;28;20025;-56
2023/02/04 06:31:38;;;;;;;13.55;8.63;;;;;;;2.19;63.42;99613.56;5070365;28;20044;-55
2023/02/04 06:34:04;;;;;;;13.80;8.05;;;;;;;2.18;63.02;99617.13;5072639;28;20064;-54
2023/02/04 06:36:30;;;;;;;14.50;8.48;;;;;;;2.14;62.89;99614.63;5072042;28;20431;-56
2023/02/04 06:38:56;;;;;;;14.13;7.65;;;;;;;2.14;63.04;99608.50;5071978;28;20090;-52
2023/02/04 06:41:22;;;;;;;12.27;7.95;;;;;;;2.13;63.29;99618.19;5072118;28;20087;-55
2023/02/04 06:43:47;;;;;;;11.32;7.90;;;;;;;2.08;63.29;99625.50;5073368;28;20368;-56
2023/02/04 06:46:13;;;;;;;12.15;8.05;;;;;;;1.82;63.58;99584.53;5075448;28;20048;-57
2023/02/04 06:48:39;;;;;;;14.95;8.35;;;;;;;2.00;63.75;99625.84;5075955;28;20036;-57
2023/02/04 06:51:04;;;;;;;12.13;8.57;;;;;;;1.99;63.51;99615.38;5075756;28;20021;-54
2023/02/04 06:53:30;;;;;;;14.88;9.18;;;;;;;2.00;63.92;99625.03;5075421;28;20056;-56
2023/02/04 06:55:55;;;;;;;15.63;9.07;;;;;;;1.99;63.70;99625.94;5075874;28;20037;-54
2023/02/04 06:58:20;;;;;;;14.55;9.15;;;;;;;1.97;63.86;99622.53;5075331;28;20029;-55
2023/02/04 07:00:46;;;;;;;14.68;8.93;;;;;;;2.04;63.99;99642.41;5075519;28;20090;-52
2023/02/04 07:03:11;;;;;;;14.30;8.70;;;;;;;2.05;63.72;99630.06;5075730;28;20025;-54
2023/02/04 07:05:37;;;;;;;14.45;9.20;;;;;;;2.15;63.41;99648.03;5075438;28;20029;-50
2023/02/04 07:08:02;;;;;;;12.55;9.10;;;;;;;2.14;63.76;99635.75;5075022;28;20024;-54
2023/02/04 07:10:28;;;;;;;14.40;8.98;;;;;;;2.15;63.47;99637.47;5075479;28;20236;-55
2023/02/04 07:12:53;;;;;;;15.32;9.45;;;;;;;2.21;63.49;99643.41;5075412;28;20032;-54
2023/02/04 07:15:19;;;;;;;14.77;9.80;;;;;;;2.27;63.52;99648.38;5074217;28;20127;-59
2023/02/04 07:17:44;;;;;;;15.63;9.43;;;;;;;2.31;63.50;99655.22;5075200;28;20111;-60
2023/02/04 07:20:10;;;;;;;13.40;9.82;;;;;;;2.35;63.56;99654.13;5075790;28;20509;-56
2023/02/04 07:22:36;;;;;;;15.48;10.05;;;;;;;2.39;63.60;99660.13;5075522;28;20029;-51
2023/02/04 07:25:01;;;;;;;16.38;9.95;;;;;;;2.36;63.46;99662.91;5075096;28;20033;-56
2023/02/04 07:27:27;;;;;;;18.20;11.20;;;;;;;2.37;63.94;99659.34;5075333;28;20043;-58
2023/02/04 07:29:52;;;;;;;16.55;11.13;;;;;;;2.35;63.64;99656.75;5075185;28;20122;-58
2023/02/04 07:32:18;;;;;;;18.25;10.80;;;;;;;2.32;63.84;99664.00;5074712;28;20360;-58
2023/02/04 07:34:43;;;;;;;16.52;10.13;;;;;;;2.36;64.01;99665.56;5074946;28;20048;-53
2023/02/04 07:37:09;;;;;;;20.52;11.05;;;;;;;2.39;63.99;99671.53;5075473;28;20032;-57
2023/02/04 07:39:34;;;;;;;17.15;11.00;;;;;;;2.42;63.58;99676.69;5075235;28;20032;-56
2023/02/04 07:42:00;;;;;;;20.05;11.93;;;;;;;2.43;63.11;99673.13;5074294;28;20039;-54
2023/02/04 07:44:25;;;;;;;21.63;11.48;;;;;;;2.36;63.02;99653.19;5074765;28;20575;-54
2023/02/04 07:46:51;;;;;;;18.30;11.65;;;;;;;2.48;64.06;99682.59;5074020;28;20386;-55
2023/02/04 07:49:16;;;;;;;22.20;12.30;;;;;;;2.53;63.16;99688.50;5075022;28;20036;-51
2023/02/04 07:51:41;;;;;;;27.38;12.23;;;;;;;2.57;63.14;99679.50;5074601;28;20028;-54
2023/02/04 07:54:07;;;;;;;22.60;12.15;;;;;;;2.64;63.34;99686.16;5074223;28;20032;-56
2023/02/04 07:56:33;;;;;;;20.25;11.90;;;;;;;2.71;63.02;99687.59;5073670;28;20089;-54
2023/02/04 07:58:58;;;;;;;20.77;12.30;;;;;;;2.76;62.53;99683.84;5074564;28;20044;-54
2023/02/04 08:01:24;;;;;;;22.20;12.35;;;;;;;2.80;62.40;99691.56;5073690;28;20024;-56
2023/02/04 08:03:49;;;;;;;19.63;12.35;;;;;;;2.86;61.69;99691.25;5074173;28;20124;-55
2023/02/04 08:06:15;;;;;;;17.38;11.50;;;;;;;2.95;61.92;99697.00;5074172;28;20421;-52
2023/02/04 08:08:40;;;;;;;22.48;11.57;;;;;;;3.09;61.45;99680.41;5075007;28;20039;-54
2023/02/04 08:11:06;;;;;;;18.05;10.75;;;;;;;3.26;60.52;99682.19;5074069;28;20026;-53
2023/02/04 08:13:31;;;;;;;19.90;11.98;;;;;;;3.47;60.73;99685.47;5074082;28;20028;-56
2023/02/04 08:15:56;;;;;;;15.93;10.80;;;;;;;3.64;59.90;99689.03;5074339;28;20044;-51
2023/02/04 08:18:23;;;;;;;17.38;11.50;;;;;;;3.83;59.29;99695.00;5074473;28;20040;-56
2023/02/04 08:20:49;;;;;;;19.13;10.57;;;;;;;3.99;58.22;99689.75;5073711;28;20033;-53
2023/02/04 08:23:15;;;;;;;14.82;10.23;;;;;;;4.14;57.85;99690.69;5073679;28;20038;-55
2023/02/04 08:25:40;;;;;;;14.43;9.65;;;;;;;4.30;57.09;99695.09;5074279;28;20054;-54
2023/02/04 08:28:06;;;;;;;17.05;9.35;;;;;;;4.45;56.90;99694.22;5073818;28;20417;-51
2023/02/04 08:30:31;;;;;;;13.82;9.10;;;;;;;4.58;55.73;99693.50;5074107;28;20036;-54
2023/02/04 08:32:56;;;;;;;14.65;10.48;;;;;;;4.63;56.21;99699.41;5073636;28;20052;-57
2023/02/04 08:35:22;;;;;;;16.08;10.85;;;;;;;4.70;56.04;99700.75;5073951;28;20029;-53
2023/02/04 08:37:47;;;;;;;15.05;10.25;;;;;;;4.76;55.04;99702.22;5072858;28;20365;-54
2023/02/04 08:40:13;;;;;;;17.35;8.95;;;;;;;4.85;54.20;99708.78;5073588;28;20036;-55
2023/02/04 08:42:38;;;;;;;17.50;11.57;;;;;;;4.93;54.31;99709.16;5073825;28;20048;-51
2023/02/04 08:45:04;;;;;;;20.88;11.80;;;;;;;4.99;54.65;99702.66;5072226;28;20090;-56
2023/02/04 08:47:29;;;;;;;17.20;10.73;;;;;;;5.06;54.73;99708.44;5073338;28;20040;-52
2023/02/04 08:49:55;;;;;;;18.95;10.88;;;;;;;5.09;54.65;99717.06;5073730;28;20033;-55
2023/02/04 08:52:20;;;;;;;21.65;11.57;;;;;;;5.10;54.97;99710.81;5073144;28;20123;-56
2023/02/04 08:54:46;;;;;;;23.38;11.85;;;;;;;5.08;55.29;99714.53;5072999;28;20040;-57
2023/02/04 08:57:11;;;;;;;18.90;12.25;;;;;;;5.07;55.38;99720.78;5072734;28;20040;-55
2023/02/04 08:59:36;;;;;;;24.70;13.07;;;;;;;4.94;55.76;99702.91;5073206;28;20028;-54
2023/02/04 09:02:02;;;;;;;20.67;13.57;;;;;;;5.08;55.46;99714.53;5073171;28;20048;-54
2023/02/04 09:04:28;;;;;;;27.38;15.50;;;;;;;5.10;55.45;99716.13;5073429;28;20032;-53
2023/02/04 09:06:53;;;;;;;34.08;17.63;;;;;;;4.91;55.65;99715.50;5072856;28;20032;-54
2023/02/04 09:09:19;;;;;;;40.58;19.73;;;;;;;4.66;56.38;99709.84;5073302;28;20049;-54
2023/02/04 09:11:46;;;;;;;25.40;17.45;;;;;;;4.56;56.49;99721.91;5073193;28;20032;-56
2023/02/04 09:14:11;;;;;;;28.30;16.90;;;;;;;4.43;56.30;99719.97;5072422;28;20378;-51
2023/02/04 09:16:37;;;;;;;30.58;18.23;;;;;;;4.30;57.07;99729.53;5072712;28;20101;-56
2023/02/04 09:19:03;;;;;;;31.02;18.38;;;;;;;4.15;57.14;99733.91;5072848;28;20328;-56
2023/02/04 09:21:29;;;;;;;37.17;20.58;;;;;;;4.02;57.60;99733.72;5073237;28;20024;-56
2023/02/04 09:23:54;;;;;;;43.22;21.25;;;;;;;3.88;57.95;99708.88;5072387;28;20028;-51
2023/02/04 09:26:20;;;;;;;26.95;16.15;;;;;;;4.13;57.48;99734.00;5073005;28;20024;-54
2023/02/04 09:28:47;;;;;;;26.08;14.65;;;;;;;4.21;57.18;99732.72;5073079;28;20043;-52
2023/02/04 09:31:12;;;;;;;30.65;14.98;;;;;;;4.29;56.80;99739.31;5073171;28;20036;-55
2023/02/04 09:33:38;;;;;;;33.08;15.98;;;;;;;4.37;57.03;99738.88;5072904;28;20111;-55
2023/02/04 09:36:04;;;;;;;42.90;24.25;;;;;;;4.44;56.82;99734.94;5072466;28;20420;-56
2023/02/04 09:38:29;;;;;;;45.80;24.00;;;;;;;4.38;57.64;99740.59;5072624;28;20032;-53
2023/02/04 09:41:00;;;;;;;40.60;21.83;;;;;;;4.27;57.77;99741.19;5072866;28;20094;-49
2023/02/04 09:43:28;;;;;;;39.15;22.00;;;;;;;4.21;58.56;99751.28;5072795;28;20040;-50
2023/02/04 09:45:55;;;;;;;34.67;18.77;;;;;;;4.16;58.83;99751.53;5072669;28;20033;-51
2023/02/04 09:48:23;;;;;;;40.78;19.92;;;;;;;4.05;59.26;99746.81;5072471;28;20036;-56
2023/02/04 09:50:49;;;;;;;33.65;19.13;;;;;;;3.97;59.25;99762.28;5073100;28;20028;-54
2023/02/04 09:53:20;;;;;;;35.22;19.13;;;;;;;3.84;60.05;99746.19;5073029;28;20028;-51
2023/02/04 09:55:47;;;;;;;32.25;18.30;;;;;;;3.80;59.88;99764.03;5073030;28;20066;-54
2023/02/04 09:58:21;;;;;;;44.33;19.80;;;;;;;3.80;60.53;99761.38;5071298;28;20289;-54
2023/02/04 10:00:55;;;;;;;33.20;19.13;;;;;;;3.78;60.11;99763.25;5072797;28;20024;-58
2023/02/04 10:03:22;;;;;;;33.35;20.40;;;;;;;3.81;60.17;99755.16;5072844;28;20035;-52
2023/02/04 10:05:48;;;;;;;31.20;18.10;;;;;;;3.85;59.59;99763.78;5072084;28;20458;-55
2023/02/04 10:08:28;;;;;;;31.02;17.80;;;;;;;3.91;59.88;99762.63;5071978;28;20447;-53
2023/02/04 10:10:55;;;;;;;35.80;20.70;;;;;;;3.89;59.88;99762.69;5072363;28;20028;-56
2023/02/04 10:13:29;;;;;;;37.50;21.58;;;;;;;3.86;59.56;99762.84;5072109;28;20024;-54
2023/02/04 10:15:54;;;;;;;39.25;20.33;;;;;;;3.93;59.62;99771.34;5072190;28;20119;-53
2023/02/04 10:18:30;;;;;;;31.90;19.02;;;;;;;4.04;60.07;99760.16;5072689;28;20521;-53
2023/02/04 10:21:21;;;;;;;31.45;20.23;;;;;;;4.18;59.84;99764.69;5076203;28;20455;-53
2023/02/04 10:23:50;;;;;;;31.15;20.27;;;;;;;4.21;59.04;99764.53;5076458;28;20101;-54
2023/02/04 10:26:17;;;;;;;36.65;20.20;;;;;;;4.22;58.80;99769.75;5076128;28;20024;-55
2023/02/04 10:28:44;;;;;;;39.10;21.73;;;;;;;4.23;59.17;99763.50;5075935;28;20028;-55
2023/02/04 10:31:26;;;;;;;37.30;22.27;;;;;;;4.38;59.27;99776.84;5076113;28;20516;-53
2023/02/04 10:34:10;;;;;;;35.90;22.20;;;;;;;4.38;58.81;99777.72;5075689;28;20033;-56
2023/02/04 10:36:37;;;;;;;36.33;21.33;;;;;;;4.29;58.00;99780.84;5075886;28;20351;-56
2023/02/04 10:39:09;;;;;;;27.65;16.70;;;;;;;4.36;58.01;99787.53;5075587;28;20431;-56
2023/02/04 10:41:37;;;;;;;23.00;14.77;;;;;;;4.37;57.10;99781.31;5075795;28;20486;-51
2023/02/04 10:44:05;;;;;;;26.92;16.30;;;;;;;4.44;56.61;99787.97;5075872;28;20033;-55
2023/02/04 10:46:31;;;;;;;10.95;6.53;;;;;;;4.62;53.01;99785.22;5075514;28;20094;-51
2023/02/04 10:48:56;;;;;;;8.13;5.95;;;;;;;4.49;50.45;99798.31;5075535;28;20397;-55
2023/02/04 10:51:22;;;;;;;8.65;5.95;;;;;;;4.43;50.73;99791.56;5076010;28;20431;-53
2023/02/04 10:56:32;;;;;;;11.65;6.97;;;;;;;4.28;51.43;99814.47;5075353;28;20329;-55
2023/02/04 10:58:57;;;;;;;10.57;6.25;;;;;;;4.44;50.49;99814.47;5075153;28;20016;-54
2023/02/04 11:01:27;;;;;;;13.48;7.45;;;;;;;4.23;51.58;99805.91;5076127;28;20032;-58
2023/02/04 11:03:52;;;;;;;11.43;7.78;;;;;;;4.13;50.86;99802.91;5075708;28;20042;-52
2023/02/04 11:06:23;;;;;;;10.70;7.03;;;;;;;4.05;51.45;99813.03;5075426;28;20111;-54
2023/02/04 11:08:52;;;;;;;9.27;6.47;;;;;;;3.98;50.47;99785.19;5075864;28;20340;-55
2023/02/04 11:11:20;;;;;;;11.98;6.90;;;;;;;4.14;50.51;99814.34;5075518;28;20363;-55
2023/02/04 11:13:49;;;;;;;12.48;7.18;;;;;;;4.19;50.05;99814.94;5074532;28;20031;-55
2023/02/04 11:16:17;;;;;;;13.20;7.57;;;;;;;3.83;50.63;99822.13;5074740;28;20136;-54
2023/02/04 11:18:50;;;;;;;10.98;6.70;;;;;;;3.82;50.52;99827.53;5075545;28;20112;-57
2023/02/04 11:21:30;;;;;;;11.20;6.78;;;;;;;3.78;51.66;99826.81;5074737;28;20386;-52
2023/02/04 11:24:12;;;;;;;10.85;6.45;;;;;;;3.76;51.42;99834.00;5074768;28;20040;-52
2023/02/04 11:26:45;;;;;;;13.60;8.32;;;;;;;3.48;52.26;99837.19;5075232;28;20047;-53
2023/02/04 11:29:33;;;;;;;12.40;7.65;;;;;;;3.41;53.03;99839.31;5075232;28;20029;-54
2023/02/04 11:32:24;;;;;;;14.30;8.10;;;;;;;3.34;53.66;99835.25;5074824;28;20051;-57